DAUB

Biskra Airport

Biskra, Algeria
METAR DAUB 211300Z 14010KT 7000 NSC 43/14 Q1011
Observed Flight Rules
Jul-21 @ 13:00 UTC (48 minutes ago) Marginal Visual Flight Rules
Wind Visibility Clouds
140° at 10 knots 7,001 meters
  • Clear skies
Temperatures Readings
Current 43°C / 109°F
Dewpoint 14°C / 57°F
Humidity 18%
Altimeter 29.85" Hg
Pressure 1011 hPa
Elevation 87
METAR DAUB 211300Z 14010KT 7000 NSC 43/14 Q1011
Observed Flight Rules
Jul-21 @ 13:00 UTC
(48 minutes ago)
MVFR
Wind Visibility
140° at 10 knots 7,001 meters
Clouds
  • Clear skies
Temperature Dewpoint
43°C / 109°F 14°C / 57°F
Humidity Altimeter Pressure
18% 29.85" Hg 1011 hPa